createdAt,value
2022-09-14T00:01:45.135Z,99826.84
2022-09-14T00:04:18.065Z,99834.09
2022-09-14T00:06:47.436Z,99839.41
2022-09-14T00:09:19.169Z,99839.63
2022-09-14T00:11:47.767Z,99853.84
2022-09-14T00:14:18.591Z,99864.88
2022-09-14T00:16:47.376Z,99864.47
2022-09-14T00:19:20.069Z,99848.75
2022-09-14T00:21:52.893Z,99834.63
2022-09-14T00:24:21.370Z,99828.34
2022-09-14T00:26:49.970Z,99824.72
2022-09-14T00:29:21.034Z,99827.28
2022-09-14T00:31:49.311Z,99804.25
2022-09-14T00:34:18.872Z,99788.22
2022-09-14T00:36:50.368Z,99780.13
2022-09-14T00:39:20.765Z,99767.63
2022-09-14T00:41:50.673Z,99771.88
2022-09-14T00:45:02.967Z,99769.31
2022-09-14T00:47:33.285Z,99757.63
2022-09-14T00:50:04.495Z,99751.47
2022-09-14T00:52:37.453Z,99749.75
2022-09-14T00:55:10.113Z,99748.19
2022-09-14T00:57:45.311Z,99754.44
2022-09-14T01:00:19.462Z,99764.22
2022-09-14T01:02:47.745Z,99771.44
2022-09-14T01:05:17.359Z,99764.56
2022-09-14T01:08:15.387Z,99768.16
2022-09-14T01:11:02.833Z,99768.28
2022-09-14T01:13:47.569Z,99775.25
2022-09-14T01:16:30.492Z,99779.94
2022-09-14T01:19:02.824Z,99777.59
2022-09-14T01:21:34.480Z,99772.50
2022-09-14T01:24:14.520Z,99778.88
2022-09-14T01:27:27.536Z,99762.53
2022-09-14T01:30:06.034Z,99771.69
2022-09-14T01:32:41.015Z,99765.63
2022-09-14T01:35:16.816Z,99773.56
2022-09-14T01:37:50.962Z,99777.19
2022-09-14T01:40:26.807Z,99773.69
2022-09-14T01:43:01.292Z,99765.63
2022-09-14T01:45:31.639Z,99761.06
2022-09-14T01:48:04.731Z,99745.13
2022-09-14T01:50:40.749Z,99749.59
2022-09-14T01:53:13.968Z,99745.97
2022-09-14T01:55:46.960Z,99742.38
2022-09-14T01:58:22.660Z,99750.22
2022-09-14T02:00:53.898Z,99741.31
2022-09-14T02:03:29.717Z,99737.72
2022-09-14T02:06:06.348Z,99727.94
2022-09-14T02:08:35.552Z,99714.56
2022-09-14T02:11:03.898Z,99716.28
2022-09-14T02:13:33.893Z,99716.28
2022-09-14T02:16:02.814Z,99709.25
2022-09-14T02:18:31.621Z,99711.06
2022-09-14T02:21:04.681Z,99710.22
2022-09-14T02:23:33.138Z,99711.91
2022-09-14T02:26:01.764Z,99701.28
2022-09-14T02:28:30.464Z,99703.00
2022-09-14T02:31:14.442Z,99700.34
2022-09-14T02:33:57.104Z,99695.03
2022-09-14T02:36:35.997Z,99694.16
2022-09-14T02:39:12.491Z,99695.03
2022-09-14T02:41:49.117Z,99695.75
2022-09-14T02:44:27.531Z,99688.56
2022-09-14T02:47:04.914Z,99694.81
2022-09-14T02:49:45.499Z,99685.38
2022-09-14T02:52:18.417Z,99691.72
2022-09-14T02:54:55.247Z,99687.00
2022-09-14T02:57:23.768Z,99687.91
2022-09-14T02:59:54.286Z,99683.59
2022-09-14T03:02:24.357Z,99685.19
2022-09-14T03:04:53.249Z,99682.50
2022-09-14T03:07:21.742Z,99690.25
2022-09-14T03:09:50.244Z,99697.16
2022-09-14T03:12:18.427Z,99693.00
2022-09-14T03:14:46.604Z,99693.75
2022-09-14T03:17:14.861Z,99689.28
2022-09-14T03:19:44.412Z,99681.25
2022-09-14T03:22:12.903Z,99678.47
2022-09-14T03:24:41.134Z,99675.72
2022-09-14T03:27:09.347Z,99667.75
2022-09-14T03:29:37.552Z,99668.50
2022-09-14T03:32:05.971Z,99663.28
2022-09-14T03:34:34.203Z,99655.34
2022-09-14T03:37:03.792Z,99645.56
2022-09-14T03:39:32.165Z,99633.03
2022-09-14T03:42:00.684Z,99629.41
2022-09-14T03:44:28.860Z,99631.13
2022-09-14T03:46:57.151Z,99618.81
2022-09-14T03:49:25.542Z,99615.22
2022-09-14T03:51:57.761Z,99623.88
2022-09-14T03:54:29.682Z,99628.25
2022-09-14T03:56:57.907Z,99628.97
2022-09-14T03:59:26.557Z,99633.44
2022-09-14T04:01:55.264Z,99639.59
2022-09-14T04:04:23.916Z,99642.25
2022-09-14T04:06:52.176Z,99640.78
2022-09-14T04:09:20.533Z,99637.28
2022-09-14T04:11:50.078Z,99640.03
2022-09-14T04:14:18.643Z,99648.00
2022-09-14T04:16:47.252Z,99642.69
2022-09-14T04:19:15.694Z,99637.38
2022-09-14T04:21:44.205Z,99641.75
2022-09-14T04:24:15.880Z,99637.16
2022-09-14T04:26:45.871Z,99638.13
2022-09-14T04:29:15.779Z,99637.16
2022-09-14T04:31:44.127Z,99636.22
2022-09-14T04:34:13.839Z,99643.22
2022-09-14T04:36:42.146Z,99639.59
2022-09-14T04:39:13.760Z,99636.00
2022-09-14T04:41:42.334Z,99623.44
2022-09-14T04:44:10.522Z,99616.22
2022-09-14T04:46:46.150Z,99632.06
2022-09-14T04:49:16.519Z,99624.09
2022-09-14T04:51:44.804Z,99633.84
2022-09-14T04:54:17.193Z,99632.91
2022-09-14T04:56:46.546Z,99626.84
2022-09-14T04:59:15.929Z,99625.16
2022-09-14T05:01:48.365Z,99628.75
2022-09-14T05:04:17.416Z,99633.13
2022-09-14T05:06:46.222Z,99634.06
2022-09-14T05:09:17.073Z,99631.31
2022-09-14T05:11:46.052Z,99623.44
2022-09-14T05:14:15.397Z,99629.50
2022-09-14T05:16:47.931Z,99630.47
2022-09-14T05:19:18.976Z,99630.34
2022-09-14T05:21:48.134Z,99643.63
2022-09-14T05:24:19.688Z,99649.75
2022-09-14T05:26:48.465Z,99647.84
2022-09-14T05:29:19.527Z,99646.16
2022-09-14T05:31:49.202Z,99654.00
2022-09-14T05:34:17.519Z,99642.53
2022-09-14T05:36:46.207Z,99647.63
2022-09-14T05:39:14.414Z,99648.47
2022-09-14T05:41:42.669Z,99637.84
2022-09-14T05:44:10.832Z,99642.31
2022-09-14T05:46:39.549Z,99633.41
2022-09-14T05:49:09.417Z,99635.09
2022-09-14T05:51:37.902Z,99633.16
2022-09-14T05:54:11.453Z,99623.53
2022-09-14T05:56:39.888Z,99612.91
2022-09-14T05:59:08.085Z,99604.19
2022-09-14T06:01:36.325Z,99601.53
2022-09-14T06:04:05.089Z,99602.41
2022-09-14T06:06:35.053Z,99605.78
2022-09-14T06:09:04.620Z,99597.94
2022-09-14T06:11:36.683Z,99590.91
2022-09-14T06:14:06.254Z,99600.59
2022-09-14T06:16:34.635Z,99595.38
2022-09-14T06:19:02.949Z,99594.53
2022-09-14T06:21:35.325Z,99597.09
2022-09-14T06:24:03.908Z,99614.72
2022-09-14T06:26:33.708Z,99622.78
2022-09-14T06:29:01.996Z,99630.03
2022-09-14T06:31:30.167Z,99629.06
2022-09-14T06:33:58.997Z,99637.25
2022-09-14T06:36:29.477Z,99651.69
2022-09-14T06:39:00.991Z,99650.72
2022-09-14T06:41:30.600Z,99648.91
2022-09-14T06:44:01.590Z,99648.81
2022-09-14T06:46:32.258Z,99644.22
2022-09-14T06:49:03.009Z,99633.41
2022-09-14T06:51:34.278Z,99631.38
2022-09-14T06:54:05.432Z,99627.53
2022-09-14T06:56:39.499Z,99634.31
2022-09-14T06:59:10.266Z,99625.28
2022-09-14T07:01:39.099Z,99630.59
2022-09-14T07:04:08.180Z,99636.75
2022-09-14T07:06:42.404Z,99639.31
2022-09-14T07:09:12.485Z,99606.59
2022-09-14T07:11:42.003Z,99609.13
2022-09-14T07:14:10.887Z,99590.81
2022-09-14T07:16:41.276Z,99599.06
2022-09-14T07:19:13.794Z,99607.81
2022-09-14T07:21:43.158Z,99588.31
2022-09-14T07:24:15.299Z,99587.50
2022-09-14T07:26:43.974Z,99588.84
2022-09-14T07:29:16.123Z,99603.09
2022-09-14T07:31:47.072Z,99600.66
2022-09-14T07:34:16.067Z,99600.91
2022-09-14T07:36:45.131Z,99619.72
2022-09-14T07:39:16.829Z,99641.00
2022-09-14T07:41:45.591Z,99648.25
2022-09-14T07:44:17.663Z,99657.16
2022-09-14T07:46:47.172Z,99647.59
2022-09-14T07:49:17.050Z,99635.19
2022-09-14T07:51:46.383Z,99628.91
2022-09-14T07:54:19.886Z,99619.72
2022-09-14T07:56:50.583Z,99620.25
2022-09-14T07:59:36.558Z,99639.69
2022-09-14T08:02:08.087Z,99634.00
2022-09-14T08:04:38.591Z,99642.19
2022-09-14T08:07:07.756Z,99650.22
2022-09-14T08:09:38.455Z,99646.50
2022-09-14T08:12:06.934Z,99654.63
2022-09-14T08:14:35.294Z,99648.13
2022-09-14T08:17:03.637Z,99647.41
2022-09-14T08:19:32.186Z,99649.59
2022-09-14T08:22:00.729Z,99659.41
2022-09-14T08:24:29.130Z,99666.66
2022-09-14T08:26:58.680Z,99678.38
2022-09-14T08:29:27.324Z,99686.81
2022-09-14T08:31:55.623Z,99692.59
2022-09-14T08:34:23.772Z,99698.16
2022-09-14T08:36:52.172Z,99695.50
2022-09-14T08:39:21.399Z,99703.47
2022-09-14T08:41:54.462Z,99707.81
2022-09-14T08:44:28.141Z,99703.00
2022-09-14T08:47:02.869Z,99712.56
2022-09-14T08:49:45.885Z,99719.69
2022-09-14T08:52:26.644Z,99717.88
2022-09-14T08:54:59.823Z,99705.94
2022-09-14T08:57:39.349Z,99711.72
2022-09-14T09:00:13.915Z,99695.66
2022-09-14T09:03:11.949Z,99692.88
2022-09-14T09:05:49.884Z,99685.38
2022-09-14T09:08:25.308Z,99684.22
2022-09-14T09:10:56.316Z,99689.16
2022-09-14T09:13:32.010Z,99699.72
2022-09-14T09:16:05.725Z,99702.16
2022-09-14T09:18:42.164Z,99701.16
2022-09-14T09:21:16.808Z,99696.81
2022-09-14T09:23:45.970Z,99695.94
2022-09-14T09:26:31.707Z,99702.47
2022-09-14T09:29:02.546Z,99688.56
2022-09-14T09:31:54.495Z,99688.56
2022-09-14T09:34:43.312Z,99689.41
2022-09-14T09:37:40.809Z,99686.88
2022-09-14T09:40:18.304Z,99688.78
2022-09-14T09:43:08.876Z,99687.09
2022-09-14T09:46:02.856Z,99677.31
2022-09-14T09:48:41.741Z,99663.41
2022-09-14T09:51:14.836Z,99645.28
2022-09-14T09:53:52.507Z,99636.97
2022-09-14T09:56:25.052Z,99623.28
2022-09-14T09:58:53.577Z,99614.81
2022-09-14T10:01:28.850Z,99615.03
2022-09-14T10:04:16.746Z,99627.13
2022-09-14T10:06:48.542Z,99618.59
2022-09-14T10:09:21.421Z,99619.59
2022-09-14T10:11:59.734Z,99613.56
2022-09-14T10:14:32.279Z,99608.47
2022-09-14T10:17:17.872Z,99613.06
2022-09-14T10:19:52.293Z,99604.38
2022-09-14T10:22:28.519Z,99596.53
2022-09-14T10:25:00.289Z,99586.81
2022-09-14T10:27:43.320Z,99582.94
2022-09-14T10:30:17.427Z,99578.34
2022-09-14T10:32:59.177Z,99578.56
2022-09-14T10:35:39.967Z,99576.09
2022-09-14T10:38:32.937Z,99562.53
2022-09-14T10:41:16.841Z,99569.47
2022-09-14T10:44:08.433Z,99559.03
2022-09-14T10:46:46.731Z,99553.81
2022-09-14T10:49:37.945Z,99550.59
2022-09-14T10:52:19.158Z,99537.81
2022-09-14T10:55:24.336Z,99526.31
2022-09-14T10:58:04.417Z,99518.50
2022-09-14T11:00:41.317Z,99533.59
2022-09-14T11:03:33.764Z,99533.19
2022-09-14T11:06:16.223Z,99517.41
2022-09-14T11:08:50.868Z,99519.75
2022-09-14T11:11:39.099Z,99521.63
2022-09-14T11:14:25.768Z,99517.78
2022-09-14T11:17:25.685Z,99519.09
2022-09-14T11:20:01.553Z,99517.72
2022-09-14T11:22:38.227Z,99512.97
2022-09-14T11:25:15.436Z,99509.09
2022-09-14T11:27:50.898Z,99503.72
2022-09-14T11:30:21.727Z,99504.41
2022-09-14T11:32:55.897Z,99506.16
2022-09-14T11:35:30.537Z,99498.63
2022-09-14T11:38:03.105Z,99496.56
2022-09-14T11:40:38.164Z,99493.16
2022-09-14T11:43:14.300Z,99498.78
2022-09-14T11:45:48.441Z,99496.72
2022-09-14T11:48:42.258Z,99507.06
2022-09-14T11:51:22.530Z,99504.56
2022-09-14T11:53:51.787Z,99510.44
2022-09-14T11:56:28.150Z,99505.91
2022-09-14T11:58:59.866Z,99507.75
2022-09-14T12:01:36.842Z,99508.06
2022-09-14T12:04:16.869Z,99496.97
2022-09-14T12:06:57.810Z,99488.88
2022-09-14T12:09:43.717Z,99487.06
2022-09-14T12:12:35.220Z,99485.00
2022-09-14T12:15:15.290Z,99474.59
2022-09-14T12:17:45.228Z,99478.78
2022-09-14T12:20:44.099Z,99480.53
2022-09-14T12:23:25.709Z,99482.13
2022-09-14T12:26:29.306Z,99493.75
2022-09-14T12:29:22.070Z,99498.03
2022-09-14T12:32:45.093Z,99494.97
2022-09-14T12:35:52.399Z,99502.38
2022-09-14T12:39:00.571Z,99505.78
2022-09-14T12:42:28.022Z,99500.63
2022-09-14T12:44:57.912Z,99505.28
2022-09-14T12:47:56.245Z,99515.56
2022-09-14T12:50:24.773Z,99520.09
2022-09-14T12:53:13.345Z,99517.88
2022-09-14T12:55:55.367Z,99508.44
2022-09-14T12:58:59.259Z,99506.75
2022-09-14T13:01:41.589Z,99505.09
2022-09-14T13:04:17.839Z,99489.03
2022-09-14T13:06:48.889Z,99486.19
2022-09-14T13:09:23.047Z,99484.22
2022-09-14T13:11:57.278Z,99476.03
2022-09-14T13:14:30.616Z,99477.44
2022-09-14T13:17:03.293Z,99456.69
2022-09-14T13:19:33.851Z,99455.41
2022-09-14T13:22:04.186Z,99455.13
2022-09-14T13:24:38.706Z,99459.47
2022-09-14T13:27:15.815Z,99446.38
2022-09-14T13:29:44.125Z,99445.69
2022-09-14T13:32:18.953Z,99449.53
2022-09-14T13:34:47.672Z,99442.63
2022-09-14T13:37:16.777Z,99440.09
2022-09-14T13:39:51.097Z,99446.59
2022-09-14T13:42:20.640Z,99448.41
2022-09-14T13:44:49.897Z,99447.59
2022-09-14T13:47:23.019Z,99457.59
2022-09-14T13:49:53.785Z,99456.91
2022-09-14T13:52:57.030Z,99456.22
2022-09-14T13:55:28.660Z,99442.84
2022-09-14T13:58:13.101Z,99443.84
2022-09-14T14:00:59.278Z,99449.31
2022-09-14T14:03:37.967Z,99455.81
2022-09-14T14:06:23.677Z,99449.91
2022-09-14T14:09:02.287Z,99447.41
2022-09-14T14:11:35.461Z,99439.38
2022-09-14T14:14:28.858Z,99430.66
2022-09-14T14:17:34.276Z,99430.78
2022-09-14T14:20:33.803Z,99435.28
2022-09-14T14:23:21.390Z,99433.63
2022-09-14T14:25:54.234Z,99438.97
2022-09-14T14:28:27.584Z,99439.25
2022-09-14T14:30:57.560Z,99430.44
2022-09-14T14:33:26.653Z,99444.94
2022-09-14T14:35:57.373Z,99428.09
2022-09-14T14:38:26.263Z,99419.66
2022-09-14T14:40:58.320Z,99431.25
2022-09-14T14:43:28.609Z,99419.16
2022-09-14T14:45:59.757Z,99418.16
2022-09-14T14:48:29.404Z,99404.66
2022-09-14T14:50:59.098Z,99399.16
2022-09-14T14:53:27.620Z,99388.19
2022-09-14T14:55:56.075Z,99398.88
2022-09-14T14:58:25.386Z,99396.19
2022-09-14T15:00:54.830Z,99392.69
2022-09-14T15:03:23.575Z,99376.78
2022-09-14T15:05:52.212Z,99388.63
2022-09-14T15:08:21.840Z,99390.44
2022-09-14T15:10:56.228Z,99395.09
2022-09-14T15:13:24.723Z,99392.44
2022-09-14T15:15:53.034Z,99395.94
2022-09-14T15:18:21.311Z,99380.75
2022-09-14T15:20:49.479Z,99374.69
2022-09-14T15:23:18.020Z,99376.69
2022-09-14T15:25:47.856Z,99386.25
2022-09-14T15:28:16.357Z,99363.78
2022-09-14T15:30:44.531Z,99370.72
2022-09-14T15:33:12.927Z,99380.97
2022-09-14T15:35:41.170Z,99374.50
2022-09-14T15:38:10.417Z,99373.13
2022-09-14T15:40:38.944Z,99377.06
2022-09-14T15:43:08.650Z,99378.28
2022-09-14T15:45:36.919Z,99382.25
2022-09-14T15:48:06.327Z,99374.53
2022-09-14T15:50:36.443Z,99384.50
2022-09-14T15:53:05.016Z,99377.31
2022-09-14T15:55:33.201Z,99378.19
2022-09-14T15:58:01.488Z,99386.03
2022-09-14T16:00:31.067Z,99382.53
2022-09-14T16:02:59.460Z,99386.88
2022-09-14T16:05:27.740Z,99385.91
2022-09-14T16:07:56.722Z,99391.53
2022-09-14T16:10:25.704Z,99397.00
2022-09-14T16:12:55.298Z,99416.81
2022-09-14T16:15:24.155Z,99425.97
2022-09-14T16:17:55.585Z,99416.28
2022-09-14T16:20:24.119Z,99423.44
2022-09-14T16:22:53.060Z,99425.41
2022-09-14T16:25:21.318Z,99425.41
2022-09-14T16:27:49.869Z,99431.03
2022-09-14T16:30:18.126Z,99438.31
2022-09-14T16:32:46.539Z,99426.97
2022-09-14T16:35:16.315Z,99446.91
2022-09-14T16:37:44.494Z,99449.84
2022-09-14T16:40:13.848Z,99447.31
2022-09-14T16:42:42.848Z,99446.78
2022-09-14T16:45:11.485Z,99444.38
2022-09-14T16:47:40.277Z,99444.66
2022-09-14T16:50:09.015Z,99458.28
2022-09-14T16:52:38.603Z,99446.44
2022-09-14T16:55:08.736Z,99456.69
2022-09-14T16:57:36.907Z,99459.91
2022-09-14T17:00:07.000Z,99456.81
2022-09-14T17:02:35.315Z,99464.38
2022-09-14T17:05:03.529Z,99463.91
2022-09-14T17:07:31.791Z,99466.84
2022-09-14T17:10:01.345Z,99465.44
2022-09-14T17:12:29.567Z,99462.31
2022-09-14T17:14:57.741Z,99450.25
2022-09-14T17:17:26.088Z,99445.44
2022-09-14T17:19:54.253Z,99449.34
2022-09-14T17:22:22.477Z,99441.75
2022-09-14T17:24:50.827Z,99453.53
2022-09-14T17:27:20.459Z,99445.81
2022-09-14T17:29:48.649Z,99439.75
2022-09-14T17:32:16.883Z,99432.75
2022-09-14T17:34:45.811Z,99436.41
2022-09-14T17:37:14.018Z,99430.78
2022-09-14T17:39:42.220Z,99426.88
2022-09-14T17:42:10.407Z,99437.28
2022-09-14T17:44:40.893Z,99432.38
2022-09-14T17:47:09.164Z,99437.28
2022-09-14T17:49:37.396Z,99458.50
2022-09-14T17:52:06.280Z,99458.91
2022-09-14T17:54:35.047Z,99449.53
2022-09-14T17:57:03.327Z,99441.75
2022-09-14T17:59:31.546Z,99460.78
2022-09-14T18:02:01.188Z,99474.47
2022-09-14T18:04:29.374Z,99458.69
2022-09-14T18:06:57.525Z,99484.34
2022-09-14T18:09:25.895Z,99481.44
2022-09-14T18:11:57.219Z,99498.50
2022-09-14T18:14:26.464Z,99485.91
2022-09-14T18:16:54.949Z,99470.88
2022-09-14T18:19:24.684Z,99489.09
2022-09-14T18:21:53.527Z,99488.69
2022-09-14T18:24:22.236Z,99490.88
2022-09-14T18:26:50.499Z,99491.81
2022-09-14T18:29:23.261Z,99475.19
2022-09-14T18:31:52.279Z,99486.75
2022-09-14T18:34:21.753Z,99481.44
2022-09-14T18:36:52.271Z,99483.03
2022-09-14T18:39:20.497Z,99475.91
2022-09-14T18:41:53.588Z,99499.09
2022-09-14T18:44:22.293Z,99514.16
2022-09-14T18:46:51.602Z,99532.88
2022-09-14T18:49:20.299Z,99538.28
2022-09-14T18:51:48.554Z,99539.25
2022-09-14T18:54:18.512Z,99553.06
2022-09-14T18:56:46.935Z,99546.78
2022-09-14T18:59:16.592Z,99566.78
2022-09-14T19:01:45.032Z,99562.97
2022-09-14T19:04:15.529Z,99558.97
2022-09-14T19:06:44.656Z,99559.28
2022-09-14T19:09:13.101Z,99549.03
2022-09-14T19:11:42.704Z,99543.09
2022-09-14T19:14:15.232Z,99538.00
2022-09-14T19:16:43.764Z,99535.47
2022-09-14T19:19:16.214Z,99534.63
2022-09-14T19:21:45.441Z,99522.19
2022-09-14T19:24:17.795Z,99514.25
2022-09-14T19:26:49.678Z,99525.69
2022-09-14T19:29:21.360Z,99528.47
2022-09-14T19:31:51.809Z,99529.53
2022-09-14T19:34:21.769Z,99528.69
2022-09-14T19:36:50.486Z,99528.69
2022-09-14T19:39:18.763Z,99534.00
2022-09-14T19:41:48.399Z,99531.53
2022-09-14T19:44:17.217Z,99547.31
2022-09-14T19:46:45.906Z,99551.78
2022-09-14T19:49:17.281Z,99554.44
2022-09-14T19:51:46.518Z,99549.13
2022-09-14T19:54:15.260Z,99550.75
2022-09-14T19:56:44.296Z,99542.88
2022-09-14T19:59:14.862Z,99545.50
2022-09-14T20:01:43.590Z,99541.84
2022-09-14T20:04:12.913Z,99535.69
2022-09-14T20:06:44.413Z,99541.00
2022-09-14T20:09:14.866Z,99534.00
2022-09-14T20:11:45.174Z,99534.72
2022-09-14T20:14:17.949Z,99536.53
2022-09-14T20:16:48.596Z,99536.53
2022-09-14T20:19:19.189Z,99547.97
2022-09-14T20:21:49.687Z,99561.25
2022-09-14T20:24:20.723Z,99563.91
2022-09-14T20:26:51.302Z,99557.75
2022-09-14T20:29:23.622Z,99567.50
2022-09-14T20:31:52.666Z,99576.31
2022-09-14T20:34:22.449Z,99590.53
2022-09-14T20:36:52.456Z,99597.66
2022-09-14T20:39:22.607Z,99592.34
2022-09-14T20:41:51.512Z,99587.06
2022-09-14T20:44:22.955Z,99586.09
2022-09-14T20:46:52.289Z,99591.28
2022-09-14T20:49:23.803Z,99587.66
2022-09-14T20:51:54.148Z,99584.91
2022-09-14T20:54:23.171Z,99585.78
2022-09-14T20:56:51.336Z,99588.19
2022-09-14T20:59:23.139Z,99583.59
2022-09-14T21:01:53.465Z,99589.75
2022-09-14T21:04:25.020Z,99586.16
2022-09-14T21:06:56.992Z,99580.03
2022-09-14T21:09:27.125Z,99586.16
2022-09-14T21:11:55.776Z,99583.59
2022-09-14T21:14:25.344Z,99581.69
2022-09-14T21:16:56.740Z,99560.47
2022-09-14T21:19:27.924Z,99556.25
2022-09-14T21:21:56.788Z,99551.91
2022-09-14T21:24:25.856Z,99539.56
2022-09-14T21:26:54.112Z,99543.94
2022-09-14T21:29:24.628Z,99539.47
2022-09-14T21:31:53.358Z,99543.94
2022-09-14T21:34:21.575Z,99549.97
2022-09-14T21:36:52.528Z,99552.63
2022-09-14T21:39:23.825Z,99565.16
2022-09-14T21:41:58.033Z,99565.16
2022-09-14T21:44:31.627Z,99562.59
2022-09-14T21:47:00.049Z,99558.88
2022-09-14T21:49:28.898Z,99557.91
2022-09-14T21:51:57.526Z,99557.69
2022-09-14T21:54:25.876Z,99567.25
2022-09-14T21:56:54.685Z,99556.63
2022-09-14T21:59:24.321Z,99557.50
2022-09-14T22:01:54.276Z,99560.03
2022-09-14T22:04:24.889Z,99562.81
2022-09-14T22:06:53.792Z,99563.00
2022-09-14T22:09:28.175Z,99563.22
2022-09-14T22:11:57.331Z,99561.53
2022-09-14T22:14:28.328Z,99551.06
2022-09-14T22:16:57.930Z,99551.16
2022-09-14T22:19:29.802Z,99549.47
2022-09-14T22:21:58.492Z,99559.25
2022-09-14T22:24:34.855Z,99557.44
2022-09-14T22:27:06.591Z,99550.31
2022-09-14T22:29:34.828Z,99540.75
2022-09-14T22:32:10.807Z,99545.09
2022-09-14T22:34:40.140Z,99562.00
2022-09-14T22:37:09.090Z,99560.09
2022-09-14T22:39:37.483Z,99555.63
2022-09-14T22:42:06.960Z,99559.84
2022-09-14T22:44:35.143Z,99554.56
2022-09-14T22:47:04.767Z,99566.84
2022-09-14T22:49:32.956Z,99581.69
2022-09-14T22:52:01.237Z,99586.88
2022-09-14T22:54:29.500Z,99584.22
2022-09-14T22:56:57.702Z,99595.81
2022-09-14T22:59:26.192Z,99595.06
2022-09-14T23:01:54.408Z,99584.66
2022-09-14T23:04:24.191Z,99588.50
2022-09-14T23:06:52.355Z,99589.47
2022-09-14T23:09:22.993Z,99595.00
2022-09-14T23:11:51.428Z,99590.59
2022-09-14T23:14:19.904Z,99576.63
2022-09-14T23:16:48.166Z,99569.59
2022-09-14T23:19:19.236Z,99569.59
2022-09-14T23:21:48.976Z,99570.66
2022-09-14T23:24:17.480Z,99569.09
2022-09-14T23:26:46.404Z,99576.94
2022-09-14T23:29:17.862Z,99588.63
2022-09-14T23:31:46.575Z,99584.28
2022-09-14T23:34:15.019Z,99577.28
2022-09-14T23:36:43.560Z,99580.66
2022-09-14T23:39:13.122Z,99574.50
2022-09-14T23:41:41.414Z,99578.97
2022-09-14T23:44:12.418Z,99580.66
2022-09-14T23:46:41.253Z,99571.75
2022-09-14T23:49:12.651Z,99563.69
2022-09-14T23:51:41.677Z,99565.38
2022-09-14T23:54:11.541Z,99569.81
2022-09-14T23:56:41.784Z,99555.84
2022-09-14T23:59:13.868Z,99565.59
